createdAt,value
2018-12-23T00:02:04.110Z,96322.75
2018-12-23T00:04:33.471Z,96329.48
2018-12-23T00:07:02.823Z,96327.11
2018-12-23T00:09:32.001Z,96338.87
2018-12-23T00:12:01.123Z,96331.67
2018-12-23T00:14:30.323Z,96340.16
2018-12-23T00:16:59.415Z,96342.86
2018-12-23T00:19:28.499Z,96337.19
2018-12-23T00:24:33.053Z,96344.67
2018-12-23T00:27:02.233Z,96350.03
2018-12-23T00:29:31.290Z,96357.59
2018-12-23T00:32:00.573Z,96355.89
2018-12-23T00:34:29.723Z,96357.16
2018-12-23T00:36:58.943Z,96370.91
2018-12-23T00:39:28.034Z,96372.84
2018-12-23T00:41:57.103Z,96372.50
2018-12-23T00:44:26.203Z,96373.59
2018-12-23T00:46:55.425Z,96380.29
2018-12-23T00:49:24.510Z,96383.80
2018-12-23T00:51:53.582Z,96384.17
2018-12-23T00:54:22.803Z,96386.00
2018-12-23T00:56:51.933Z,96380.77
2018-12-23T00:59:21.085Z,96379.10
2018-12-23T01:01:50.174Z,96380.50
2018-12-23T01:04:19.297Z,96386.28
2018-12-23T01:06:48.390Z,96395.91
2018-12-23T01:09:17.586Z,96388.87
2018-12-23T01:11:46.764Z,96388.39
2018-12-23T01:14:15.806Z,96387.20
2018-12-23T01:16:44.983Z,96401.76
2018-12-23T01:19:14.070Z,96396.48
2018-12-23T01:21:43.202Z,96409.41
2018-12-23T01:24:12.282Z,96403.66
2018-12-23T01:26:41.370Z,96410.23
2018-12-23T01:29:10.526Z,96415.16
2018-12-23T01:31:40.420Z,96417.16
2018-12-23T01:34:09.648Z,96419.76
2018-12-23T01:36:38.734Z,96418.70
2018-12-23T01:39:07.850Z,96430.44
2018-12-23T01:41:37.045Z,96418.66
2018-12-23T01:44:06.190Z,96435.13
2018-12-23T01:46:35.467Z,96431.97
2018-12-23T01:49:04.640Z,96439.73
2018-12-23T01:51:33.736Z,96437.14
2018-12-23T01:54:02.909Z,96433.64
2018-12-23T01:56:32.042Z,96432.11
2018-12-23T01:59:01.191Z,96446.98
2018-12-23T02:01:30.338Z,96444.03
2018-12-23T02:03:59.510Z,96452.03
2018-12-23T02:06:28.885Z,96449.23
2018-12-23T02:08:57.968Z,96449.28
2018-12-23T02:11:27.133Z,96445.12
2018-12-23T02:13:56.297Z,96442.30
2018-12-23T02:16:25.411Z,96432.91
2018-12-23T02:18:54.490Z,96434.54
2018-12-23T02:21:23.676Z,96433.63
2018-12-23T02:23:52.887Z,96425.05
2018-12-23T02:26:22.027Z,96430.19
2018-12-23T02:28:51.374Z,96434.44
2018-12-23T02:31:20.508Z,96449.09
2018-12-23T02:33:49.688Z,96446.18
2018-12-23T02:36:18.767Z,96446.55
2018-12-23T02:38:47.842Z,96444.17
2018-12-23T02:41:16.965Z,96447.47
2018-12-23T02:43:46.069Z,96453.94
2018-12-23T02:46:15.230Z,96450.30
2018-12-23T02:48:44.426Z,96452.03
2018-12-23T02:51:13.838Z,96455.23
2018-12-23T02:53:43.198Z,96444.17
2018-12-23T02:56:12.510Z,96443.69
2018-12-23T02:58:41.606Z,96433.78
2018-12-23T03:01:10.726Z,96436.80
2018-12-23T03:03:39.825Z,96435.55
2018-12-23T03:06:08.929Z,96439.19
2018-12-23T03:08:38.041Z,96422.45
2018-12-23T03:11:07.123Z,96427.08
2018-12-23T03:13:36.325Z,96429.28
2018-12-23T03:16:05.609Z,96431.63
2018-12-23T03:18:34.899Z,96435.38
2018-12-23T03:21:04.152Z,96434.21
2018-12-23T03:23:33.553Z,96433.97
2018-12-23T03:26:02.634Z,96434.80
2018-12-23T03:28:31.834Z,96440.55
2018-12-23T03:31:00.934Z,96446.91
2018-12-23T03:33:31.046Z,96440.44
2018-12-23T03:36:00.331Z,96431.97
2018-12-23T03:38:29.562Z,96425.49
2018-12-23T03:40:59.011Z,96422.78
2018-12-23T03:43:28.544Z,96428.89
2018-12-23T03:45:57.755Z,96431.01
2018-12-23T03:48:26.922Z,96428.52
2018-12-23T03:50:56.095Z,96434.06
2018-12-23T03:53:25.343Z,96431.01
2018-12-23T03:55:54.492Z,96422.06
2018-12-23T03:58:23.794Z,96436.56
2018-12-23T04:00:52.926Z,96434.06
2018-12-23T04:03:22.063Z,96448.87
2018-12-23T04:05:51.316Z,96453.75
2018-12-23T04:08:20.573Z,96456.67
2018-12-23T04:10:49.656Z,96457.97
2018-12-23T04:13:18.749Z,96459.64
2018-12-23T04:15:48.548Z,96456.00
2018-12-23T04:18:17.763Z,96456.63
2018-12-23T04:20:47.016Z,96461.56
2018-12-23T04:23:16.148Z,96456.44
2018-12-23T04:25:45.275Z,96450.78
2018-12-23T04:28:14.400Z,96463.42
2018-12-23T04:30:43.784Z,96473.53
2018-12-23T04:33:12.914Z,96464.91
2018-12-23T04:35:42.327Z,96471.04
2018-12-23T04:38:11.525Z,96474.96
2018-12-23T04:40:40.753Z,96481.53
2018-12-23T04:43:09.908Z,96479.52
2018-12-23T04:45:40.205Z,96483.16
2018-12-23T04:48:09.523Z,96482.20
2018-12-23T04:50:38.712Z,96487.37
2018-12-23T04:53:07.917Z,96491.77
2018-12-23T04:55:37.061Z,96486.78
2018-12-23T04:58:07.481Z,96486.36
2018-12-23T05:00:36.920Z,96495.13
2018-12-23T05:03:06.023Z,96486.80
2018-12-23T05:05:35.262Z,96479.03
2018-12-23T05:08:05.923Z,96478.88
2018-12-23T05:10:36.222Z,96478.66
2018-12-23T05:13:05.795Z,96466.92
2018-12-23T05:15:34.976Z,96466.67
2018-12-23T05:18:04.144Z,96469.12
2018-12-23T05:20:33.913Z,96468.06
2018-12-23T05:23:03.328Z,96473.34
2018-12-23T05:25:34.847Z,96484.16
2018-12-23T05:28:04.188Z,96479.79
2018-12-23T05:30:33.502Z,96487.23
2018-12-23T05:33:41.426Z,96492.55
2018-12-23T05:36:12.232Z,96486.41
2018-12-23T05:38:42.972Z,96489.62
2018-12-23T05:41:13.511Z,96488.28
2018-12-23T05:43:44.043Z,96495.13
2018-12-23T05:46:14.609Z,96495.85
2018-12-23T05:48:45.154Z,96500.58
2018-12-23T05:51:15.716Z,96485.98
2018-12-23T05:53:46.265Z,96496.08
2018-12-23T05:56:16.873Z,96499.72
2018-12-23T05:58:47.325Z,96492.53
2018-12-23T06:01:17.774Z,96502.30
2018-12-23T06:03:48.257Z,96503.84
2018-12-23T06:06:18.757Z,96513.56
2018-12-23T06:08:49.306Z,96517.59
2018-12-23T06:11:19.884Z,96516.30
2018-12-23T06:13:50.434Z,96512.75
2018-12-23T06:16:20.880Z,96522.66
2018-12-23T06:18:51.362Z,96521.80
2018-12-23T06:21:24.488Z,96526.64
2018-12-23T06:23:55.171Z,96530.38
2018-12-23T06:26:25.652Z,96528.27
2018-12-23T06:28:56.107Z,96531.56
2018-12-23T06:31:26.703Z,96532.77
2018-12-23T06:33:57.407Z,96527.06
2018-12-23T06:36:27.949Z,96526.59
2018-12-23T06:38:58.586Z,96529.88
2018-12-23T06:41:29.267Z,96537.80
2018-12-23T06:43:59.874Z,96535.07
2018-12-23T06:46:30.452Z,96533.68
2018-12-23T06:49:01.018Z,96531.34
2018-12-23T06:51:32.064Z,96534.92
2018-12-23T06:54:02.692Z,96537.73
2018-12-23T06:56:33.379Z,96536.92
2018-12-23T06:59:04.004Z,96531.37
2018-12-23T07:01:34.597Z,96530.22
2018-12-23T07:04:05.465Z,96538.88
2018-12-23T07:06:35.905Z,96544.67
2018-12-23T07:09:07.581Z,96536.69
2018-12-23T07:11:38.129Z,96536.54
2018-12-23T07:14:08.574Z,96543.95
2018-12-23T07:16:39.192Z,96544.20
2018-12-23T07:19:09.683Z,96552.10
2018-12-23T07:21:40.126Z,96564.71
2018-12-23T07:24:10.678Z,96558.98
2018-12-23T07:26:41.276Z,96564.71
2018-12-23T07:29:11.765Z,96571.69
2018-12-23T07:31:42.339Z,96573.14
2018-12-23T07:34:12.803Z,96568.91
2018-12-23T07:36:49.616Z,96559.39
2018-12-23T07:39:15.817Z,96554.69
2018-12-23T07:41:46.263Z,96553.08
2018-12-23T07:44:16.708Z,96556.61
2018-12-23T07:46:47.169Z,96547.28
2018-12-23T07:49:17.678Z,96544.10
2018-12-23T07:51:48.140Z,96534.34
2018-12-23T07:54:18.898Z,96528.44
2018-12-23T07:56:49.458Z,96537.06
2018-12-23T07:59:19.963Z,96550.89
2018-12-23T08:01:50.418Z,96557.39
2018-12-23T08:04:20.870Z,96560.70
2018-12-23T08:06:51.366Z,96567.07
2018-12-23T08:09:21.905Z,96563.29
2018-12-23T08:11:52.342Z,96559.50
2018-12-23T08:14:22.791Z,96555.37
2018-12-23T08:16:53.327Z,96556.16
2018-12-23T08:19:23.788Z,96566.02
2018-12-23T08:21:54.297Z,96559.50
2018-12-23T08:24:24.735Z,96559.73
2018-12-23T08:26:55.284Z,96557.64
2018-12-23T08:29:25.799Z,96558.12
2018-12-23T08:31:56.271Z,96568.11
2018-12-23T08:34:26.874Z,96572.56
2018-12-23T08:36:57.334Z,96572.96
2018-12-23T08:39:27.870Z,96573.78
2018-12-23T08:41:58.591Z,96570.40
2018-12-23T08:44:29.138Z,96571.67
2018-12-23T08:46:59.611Z,96561.34
2018-12-23T08:49:30.132Z,96561.25
2018-12-23T08:52:00.618Z,96557.10
2018-12-23T08:54:31.059Z,96559.54
2018-12-23T08:57:01.595Z,96558.91
2018-12-23T08:59:32.095Z,96565.23
2018-12-23T09:02:02.642Z,96563.14
2018-12-23T09:04:33.184Z,96560.23
2018-12-23T09:07:03.650Z,96562.86
2018-12-23T09:09:34.094Z,96566.35
2018-12-23T09:12:04.619Z,96562.39
2018-12-23T09:14:35.074Z,96563.69
2018-12-23T09:17:05.530Z,96560.95
2018-12-23T09:19:36.065Z,96553.33
2018-12-23T09:22:06.635Z,96559.61
2018-12-23T09:24:37.271Z,96546.81
2018-12-23T09:27:07.767Z,96545.42
2018-12-23T09:29:38.315Z,96551.45
2018-12-23T09:32:08.855Z,96547.81
2018-12-23T09:34:39.315Z,96551.70
2018-12-23T09:37:09.870Z,96553.94
2018-12-23T09:39:40.424Z,96547.81
2018-12-23T09:42:10.944Z,96549.31
2018-12-23T09:44:41.396Z,96543.69
2018-12-23T09:47:11.844Z,96542.02
2018-12-23T09:49:42.742Z,96535.88
2018-12-23T09:52:13.189Z,96530.06
2018-12-23T09:54:43.719Z,96520.70
2018-12-23T09:57:14.183Z,96519.07
2018-12-23T09:59:44.799Z,96515.31
2018-12-23T10:02:15.255Z,96517.00
2018-12-23T10:04:45.723Z,96508.51
2018-12-23T10:07:16.192Z,96507.08
2018-12-23T10:09:46.661Z,96506.27
2018-12-23T10:12:17.292Z,96503.81
2018-12-23T10:14:47.850Z,96510.88
2018-12-23T10:17:18.298Z,96507.47
2018-12-23T10:19:48.782Z,96509.48
2018-12-23T10:22:19.267Z,96509.83
2018-12-23T10:24:49.711Z,96508.30
2018-12-23T10:27:20.193Z,96501.00
2018-12-23T10:29:50.644Z,96488.88
2018-12-23T10:32:21.126Z,96496.55
2018-12-23T10:34:51.717Z,96486.03
2018-12-23T10:37:22.247Z,96479.07
2018-12-23T10:39:52.709Z,96481.67
2018-12-23T10:42:23.187Z,96476.73
2018-12-23T10:44:53.716Z,96472.36
2018-12-23T10:47:24.598Z,96461.50
2018-12-23T10:49:55.129Z,96462.91
2018-12-23T10:52:25.892Z,96450.38
2018-12-23T10:54:56.510Z,96442.37
2018-12-23T10:57:27.119Z,96431.78
2018-12-23T10:59:57.556Z,96435.23
2018-12-23T11:02:28.112Z,96426.36
2018-12-23T11:04:58.664Z,96426.14
2018-12-23T11:07:29.200Z,96424.84
2018-12-23T11:10:02.115Z,96416.59
2018-12-23T11:12:31.894Z,96417.02
2018-12-23T11:15:02.356Z,96407.70
2018-12-23T11:17:32.834Z,96407.56
2018-12-23T11:20:03.484Z,96405.28
2018-12-23T11:22:33.918Z,96406.62
2018-12-23T11:25:04.627Z,96392.84
2018-12-23T11:27:35.161Z,96394.70
2018-12-23T11:30:06.877Z,96398.66
2018-12-23T11:32:37.405Z,96393.05
2018-12-23T11:35:08.025Z,96396.95
2018-12-23T11:37:38.563Z,96382.64
2018-12-23T11:40:09.729Z,96390.15
2018-12-23T11:42:40.198Z,96375.65
2018-12-23T11:45:10.655Z,96374.73
2018-12-23T11:47:41.219Z,96365.09
2018-12-23T11:50:11.770Z,96346.18
2018-12-23T11:52:42.226Z,96360.84
2018-12-23T11:55:12.800Z,96345.77
2018-12-23T11:57:43.328Z,96339.98
2018-12-23T12:00:13.856Z,96342.19
2018-12-23T12:02:44.347Z,96331.41
2018-12-23T12:05:14.930Z,96327.09
2018-12-23T12:07:45.479Z,96328.24
2018-12-23T12:10:15.951Z,96329.73
2018-12-23T12:12:46.485Z,96323.70
2018-12-23T12:15:17.013Z,96334.50
2018-12-23T12:17:47.589Z,96331.44
2018-12-23T12:20:18.105Z,96324.73
2018-12-23T12:22:48.565Z,96327.14
2018-12-23T12:25:19.045Z,96325.19
2018-12-23T12:27:49.486Z,96321.61
2018-12-23T12:30:19.999Z,96319.73
2018-12-23T12:32:50.467Z,96313.67
2018-12-23T12:35:21.079Z,96303.08
2018-12-23T12:37:51.563Z,96299.20
2018-12-23T12:40:22.017Z,96293.32
2018-12-23T12:42:52.736Z,96293.59
2018-12-23T12:45:23.181Z,96289.81
2018-12-23T12:47:53.635Z,96292.00
2018-12-23T12:50:24.162Z,96286.81
2018-12-23T12:52:54.591Z,96281.89
2018-12-23T12:55:25.208Z,96275.75
2018-12-23T12:57:55.637Z,96274.91
2018-12-23T13:00:26.186Z,96271.23
2018-12-23T13:02:56.757Z,96267.34
2018-12-23T13:05:27.211Z,96279.74
2018-12-23T13:07:57.693Z,96262.35
2018-12-23T13:10:28.243Z,96257.95
2018-12-23T13:12:58.702Z,96251.80
2018-12-23T13:15:29.204Z,96256.77
2018-12-23T13:17:59.783Z,96253.97
2018-12-23T13:20:30.326Z,96262.25
2018-12-23T13:23:00.861Z,96245.00
2018-12-23T13:25:31.396Z,96247.27
2018-12-23T13:28:02.016Z,96238.91
2018-12-23T13:30:32.573Z,96239.50
2018-12-23T13:33:03.049Z,96236.09
2018-12-23T13:35:33.493Z,96233.72
2018-12-23T13:38:04.163Z,96228.16
2018-12-23T13:40:46.533Z,96219.44
2018-12-23T13:43:54.465Z,96217.48
2018-12-23T13:46:54.861Z,96210.66
2018-12-23T13:49:55.641Z,96203.27
2018-12-23T13:52:48.915Z,96200.30
2018-12-23T13:56:02.202Z,96197.71
2018-12-23T13:58:51.075Z,96196.49
2018-12-23T14:02:13.955Z,96195.55
2018-12-23T14:05:18.922Z,96198.20
2018-12-23T14:08:14.002Z,96196.81
2018-12-23T14:11:14.121Z,96191.20
2018-12-23T14:13:44.807Z,96192.11
2018-12-23T14:16:15.360Z,96188.05
2018-12-23T14:18:45.866Z,96195.94
2018-12-23T14:21:16.430Z,96200.20
2018-12-23T14:23:46.912Z,96192.80
2018-12-23T14:26:17.459Z,96193.09
2018-12-23T14:28:47.996Z,96185.91
2018-12-23T14:31:18.436Z,96202.25
2018-12-23T14:33:48.906Z,96188.61
2018-12-23T14:36:19.443Z,96182.50
2018-12-23T14:38:49.960Z,96173.44
2018-12-23T14:41:20.455Z,96165.80
2018-12-23T14:43:50.903Z,96161.56
2018-12-23T14:46:21.502Z,96158.65
2018-12-23T14:49:11.039Z,96153.92
2018-12-23T14:51:41.516Z,96150.75
2018-12-23T14:54:11.976Z,96145.45
2018-12-23T14:56:42.415Z,96129.81
2018-12-23T14:59:12.868Z,96133.24
2018-12-23T15:01:43.328Z,96125.82
2018-12-23T15:04:13.764Z,96120.67
2018-12-23T15:07:03.161Z,96115.61
2018-12-23T15:09:39.242Z,96105.96
2018-12-23T15:12:09.717Z,96109.38
2018-12-23T15:14:40.188Z,96109.95
2018-12-23T15:19:52.916Z,96085.74
2018-12-23T15:22:42.443Z,96091.27
2018-12-23T15:25:23.008Z,96087.85
2018-12-23T15:27:53.457Z,96083.29
2018-12-23T15:30:42.927Z,96077.75
2018-12-23T15:33:13.374Z,96075.41
2018-12-23T15:36:03.101Z,96073.18
2018-12-23T15:38:33.638Z,96068.83
2018-12-23T15:41:23.115Z,96064.59
2018-12-23T15:43:53.592Z,96054.25
2018-12-23T15:46:24.046Z,96044.98
2018-12-23T15:49:13.641Z,96031.23
2018-12-23T15:54:46.399Z,96002.33
2018-12-23T15:57:45.496Z,95980.35
2018-12-23T16:00:36.676Z,95981.75
2018-12-23T16:03:07.183Z,95975.63
2018-12-23T16:05:56.750Z,95956.13
2018-12-23T16:08:27.290Z,95953.43
2018-12-23T16:11:16.836Z,95947.30
2018-12-23T16:13:47.364Z,95946.71
2018-12-23T16:16:17.958Z,95940.95
2018-12-23T16:19:07.404Z,95931.45
2018-12-23T16:21:56.972Z,95929.20
2018-12-23T16:24:46.533Z,95926.61
2018-12-23T16:27:17.005Z,95912.06
2018-12-23T16:30:06.424Z,95912.28
2018-12-23T16:35:56.594Z,95918.04
2018-12-23T16:38:46.084Z,95908.03
2018-12-23T16:41:16.577Z,95891.11
2018-12-23T16:43:47.030Z,95886.16
2018-12-23T16:46:36.677Z,95873.82
2018-12-23T16:49:07.131Z,95869.56
2018-12-23T16:51:37.619Z,95861.36
2018-12-23T16:54:08.093Z,95856.83
2018-12-23T16:56:50.670Z,95856.78
2018-12-23T16:59:21.128Z,95858.39
2018-12-23T17:01:51.564Z,95850.05
2018-12-23T17:04:22.022Z,95847.95
2018-12-23T17:07:11.579Z,95842.41
2018-12-23T17:15:43.387Z,95825.75
2018-12-23T17:18:32.930Z,95830.33
2018-12-23T17:21:03.407Z,95819.98
2018-12-23T17:23:52.811Z,95820.20
2018-12-23T17:26:23.280Z,95818.62
2018-12-23T17:28:53.785Z,95812.62
2018-12-23T17:31:24.251Z,95811.31
2018-12-23T17:34:35.782Z,95796.01
2018-12-23T17:37:25.332Z,95795.95
2018-12-23T17:40:16.597Z,95787.92
2018-12-23T17:42:55.937Z,95790.00
2018-12-23T17:48:27.685Z,95772.67
2018-12-23T17:51:17.240Z,95764.72
2018-12-23T17:53:47.773Z,95760.11
2018-12-23T17:56:18.201Z,95759.84
2018-12-23T17:58:58.760Z,95755.19
2018-12-23T18:01:29.289Z,95751.39
2018-12-23T18:04:09.856Z,95752.57
2018-12-23T18:06:40.321Z,95746.70
2018-12-23T18:09:29.755Z,95748.77
2018-12-23T18:12:00.219Z,95738.48
2018-12-23T18:14:49.650Z,95731.51
2018-12-23T18:17:39.225Z,95722.62
2018-12-23T18:20:28.779Z,95721.75
2018-12-23T18:23:18.323Z,95716.53
2018-12-23T18:25:48.771Z,95720.95
2018-12-23T18:28:19.242Z,95708.84
2018-12-23T18:31:08.833Z,95711.69
2018-12-23T18:33:58.366Z,95706.70
2018-12-23T18:36:28.838Z,95713.45
2018-12-23T18:39:18.364Z,95706.97
2018-12-23T18:41:48.834Z,95700.64
2018-12-23T18:44:38.274Z,95709.16
2018-12-23T18:47:08.756Z,95703.86
2018-12-23T18:49:58.169Z,95680.15
2018-12-23T18:52:47.834Z,95673.23
2018-12-23T18:55:18.302Z,95684.55
2018-12-23T18:58:08.691Z,95675.76
2018-12-23T19:00:58.424Z,95686.63
2018-12-23T19:03:28.961Z,95672.80
2018-12-23T19:06:18.506Z,95699.66
2018-12-23T19:12:30.608Z,95674.63
2018-12-23T19:15:39.192Z,95675.39
2018-12-23T19:21:52.329Z,95678.34
2018-12-23T19:25:00.939Z,95669.98
2018-12-23T19:27:55.706Z,95667.64
2018-12-23T19:31:04.250Z,95670.96
2018-12-23T19:34:12.805Z,95646.49
